sensor_id;sensor_type;location;lat;lon;timestamp;P1;P2;P0
48153;PMS5003;33942;49.272;14.452;2022-11-10T07:20:47;5000;5000;
48153;PMS5003;33942;49.272;14.452;2022-11-10T07:23:15;6788;6788;
48153;PMS5003;33942;49.272;14.452;2022-11-10T07:25:43;6506;6506;
48153;PMS5003;33942;49.272;14.452;2022-11-10T07:28:10;6456;6456;
48153;PMS5003;33942;49.272;14.452;2022-11-10T07:30:38;6439;6439;
48153;PMS5003;33942;49.272;14.452;2022-11-10T07:33:06;5529;5529;
48153;PMS5003;33942;49.272;14.452;2022-11-10T07:35:36;5950;5950;
48153;PMS5003;33942;49.272;14.452;2022-11-10T07:38:04;6246;6246;
48153;PMS5003;33942;49.272;14.452;2022-11-10T07:40:32;6357;6357;
48153;PMS5003;33942;49.272;14.452;2022-11-10T07:43:01;6325;6325;
48153;PMS5003;33942;49.272;14.452;2022-11-10T07:45:28;6309;6309;
48153;PMS5003;33942;49.272;14.452;2022-11-10T07:47:57;6309;6309;
48153;PMS5003;33942;49.272;14.452;2022-11-10T07:50:24;6309;6309;
48153;PMS5003;33942;49.272;14.452;2022-11-10T07:52:51;6309;6309;
48153;PMS5003;33942;49.272;14.452;2022-11-10T07:55:19;6293;6293;
48153;PMS5003;33942;49.272;14.452;2022-11-10T07:57:46;6262;6262;
48153;PMS5003;33942;49.272;14.452;2022-11-10T08:00:14;6262;6262;
48153;PMS5003;33942;49.272;14.452;2022-11-10T08:02:42;6262;6262;
48153;PMS5003;33942;49.272;14.452;2022-11-10T08:05:10;6293;6293;
48153;PMS5003;33942;49.272;14.452;2022-11-10T08:07:37;6278;6278;
48153;PMS5003;33942;49.272;14.452;2022-11-10T08:10:05;6309;6309;
48153;PMS5003;33942;49.272;14.452;2022-11-10T08:12:33;6293;6293;
48153;PMS5003;33942;49.272;14.452;2022-11-10T08:15:00;6246;6246;
48153;PMS5003;33942;49.272;14.452;2022-11-10T08:17:28;6309;6309;
48153;PMS5003;33942;49.272;14.452;2022-11-10T08:19:55;6293;6293;
48153;PMS5003;33942;49.272;14.452;2022-11-10T08:22:22;5719;5719;
48153;PMS5003;33942;49.272;14.452;2022-11-10T08:24:49;6293;6293;
48153;PMS5003;33942;49.272;14.452;2022-11-10T08:27:17;6262;6262;
48153;PMS5003;33942;49.272;14.452;2022-11-10T08:29:44;6293;6293;
48153;PMS5003;33942;49.272;14.452;2022-11-10T08:32:12;6309;6309;
48153;PMS5003;33942;49.272;14.452;2022-11-10T08:34:38;6293;6293;
48153;PMS5003;33942;49.272;14.452;2022-11-10T08:37:06;5758;5758;
48153;PMS5003;33942;49.272;14.452;2022-11-10T08:39:33;6246;6246;
48153;PMS5003;33942;49.272;14.452;2022-11-10T08:42:01;6231;6231;
48153;PMS5003;33942;49.272;14.452;2022-11-10T08:44:28;6200;6200;
48153;PMS5003;33942;49.272;14.452;2022-11-10T08:46:56;6200;6200;
48153;PMS5003;33942;49.272;14.452;2022-11-10T08:49:23;6200;6200;
48153;PMS5003;33942;49.272;14.452;2022-11-10T08:51:50;6246;6246;
48153;PMS5003;33942;49.272;14.452;2022-11-10T08:54:18;6215;6215;
48153;PMS5003;33942;49.272;14.452;2022-11-10T08:56:45;6154;6154;
48153;PMS5003;33942;49.272;14.452;2022-11-10T08:59:13;6154;6154;
48153;PMS5003;33942;49.272;14.452;2022-11-10T09:01:41;6169;6169;
48153;PMS5003;33942;49.272;14.452;2022-11-10T09:04:09;6124;6124;
48153;PMS5003;33942;49.272;14.452;2022-11-10T09:06:36;6124;6124;
48153;PMS5003;33942;49.272;14.452;2022-11-10T09:09:03;5554;5554;
48153;PMS5003;33942;49.272;14.452;2022-11-10T09:11:30;6050;6050;
48153;PMS5003;33942;49.272;14.452;2022-11-10T09:13:58;6021;6021;
48153;PMS5003;33942;49.272;14.452;2022-11-10T09:16:25;6021;6021;
48153;PMS5003;33942;49.272;14.452;2022-11-10T09:18:52;6036;6036;
48153;PMS5003;33942;49.272;14.452;2022-11-10T09:22:47;0;0;
48153;PMS5003;33942;49.272;14.452;2022-11-10T09:25:14;0;0;
48153;PMS5003;33942;49.272;14.452;2022-11-10T09:27:41;0;0;
48153;PMS5003;33942;49.272;14.452;2022-11-10T09:30:09;0;0;
48153;PMS5003;33942;49.272;14.452;2022-11-10T09:32:37;0;0;
48153;PMS5003;33942;49.272;14.452;2022-11-10T09:35:04;0;0;
48153;PMS5003;33942;49.272;14.452;2022-11-10T09:37:31;0;0;
48153;PMS5003;33942;49.272;14.452;2022-11-10T09:40:04;0;0;
48153;PMS5003;33942;49.272;14.452;2022-11-10T09:42:33;0;0;
48153;PMS5003;33942;49.272;14.452;2022-11-10T09:45:04;0;0;
48153;PMS5003;33942;49.272;14.452;2022-11-10T09:47:48;0;0;
48153;PMS5003;33942;49.272;14.452;2022-11-10T09:50:27;0;0;
48153;PMS5003;33942;49.272;14.452;2022-11-10T09:53:02;0;0;
48153;PMS5003;33942;49.272;14.452;2022-11-10T09:55:33;1;0;
48153;PMS5003;33942;49.272;14.452;2022-11-10T09:58:08;0;0;
48153;PMS5003;33942;49.272;14.452;2022-11-10T10:00:39;0;0;
48153;PMS5003;33942;49.272;14.452;2022-11-10T10:03:11;0;0;
48153;PMS5003;33942;49.272;14.452;2022-11-10T10:05:46;3;0;
48153;PMS5003;33942;49.272;14.452;2022-11-10T10:08:25;0;0;
48153;PMS5003;33942;49.272;14.452;2022-11-10T10:10:59;0;0;
48153;PMS5003;33942;49.272;14.452;2022-11-10T10:13:48;0;0;
48153;PMS5003;33942;49.272;14.452;2022-11-10T10:16:30;0;0;
48153;PMS5003;33942;49.272;14.452;2022-11-10T10:19:06;0;0;
48153;PMS5003;33942;49.272;14.452;2022-11-10T10:21:44;0;0;
48153;PMS5003;33942;49.272;14.452;2022-11-10T10:24:22;0;0;
48153;PMS5003;33942;49.272;14.452;2022-11-10T10:26:52;0;0;
48153;PMS5003;33942;49.272;14.452;2022-11-10T10:29:23;0;0;
48153;PMS5003;33942;49.272;14.452;2022-11-10T10:31:51;0;0;
48153;PMS5003;33942;49.272;14.452;2022-11-10T10:34:22;0;0;
48153;PMS5003;33942;49.272;14.452;2022-11-10T10:36:53;0;0;
48153;PMS5003;33942;49.272;14.452;2022-11-10T10:39:22;0;0;
48153;PMS5003;33942;49.272;14.452;2022-11-10T10:41:53;0;0;
48153;PMS5003;33942;49.272;14.452;2022-11-10T10:44:20;0;0;
48153;PMS5003;33942;49.272;14.452;2022-11-10T10:46:48;0;0;
48153;PMS5003;33942;49.272;14.452;2022-11-10T10:49:18;0;0;
48153;PMS5003;33942;49.272;14.452;2022-11-10T10:51:47;1;1;
48153;PMS5003;33942;49.272;14.452;2022-11-10T10:54:23;0;0;
48153;PMS5003;33942;49.272;14.452;2022-11-10T10:56:59;0;0;
48153;PMS5003;33942;49.272;14.452;2022-11-10T10:59:27;0;0;
48153;PMS5003;33942;49.272;14.452;2022-11-10T11:01:55;0;0;
48153;PMS5003;33942;49.272;14.452;2022-11-10T11:04:27;0;0;
48153;PMS5003;33942;49.272;14.452;2022-11-10T11:06:59;0;0;
48153;PMS5003;33942;49.272;14.452;2022-11-10T11:09:29;0;0;
48153;PMS5003;33942;49.272;14.452;2022-11-10T11:12:05;0;0;
48153;PMS5003;33942;49.272;14.452;2022-11-10T11:14:34;0;0;
48153;PMS5003;33942;49.272;14.452;2022-11-10T11:17:01;0;0;
48153;PMS5003;33942;49.272;14.452;2022-11-10T11:19:37;0;0;
48153;PMS5003;33942;49.272;14.452;2022-11-10T11:22:41;0;0;
48153;PMS5003;33942;49.272;14.452;2022-11-10T11:25:18;0;0;
48153;PMS5003;33942;49.272;14.452;2022-11-10T11:27:54;0;0;
48153;PMS5003;33942;49.272;14.452;2022-11-10T11:30:30;0;0;
48153;PMS5003;33942;49.272;14.452;2022-11-10T11:33:13;0;0;
48153;PMS5003;33942;49.272;14.452;2022-11-10T11:35:48;0;0;
48153;PMS5003;33942;49.272;14.452;2022-11-10T11:38:24;1;1;
48153;PMS5003;33942;49.272;14.452;2022-11-10T11:41:00;0;0;
48153;PMS5003;33942;49.272;14.452;2022-11-10T11:43:43;0;0;
48153;PMS5003;33942;49.272;14.452;2022-11-10T11:46:25;0;0;
48153;PMS5003;33942;49.272;14.452;2022-11-10T11:49:02;0;0;
48153;PMS5003;33942;49.272;14.452;2022-11-10T11:51:57;1;1;
48153;PMS5003;33942;49.272;14.452;2022-11-10T11:54:38;0;0;
48153;PMS5003;33942;49.272;14.452;2022-11-10T11:57:19;0;0;
48153;PMS5003;33942;49.272;14.452;2022-11-10T11:59:58;0;0;
48153;PMS5003;33942;49.272;14.452;2022-11-10T12:02:33;0;0;
48153;PMS5003;33942;49.272;14.452;2022-11-10T12:05:16;0;0;
48153;PMS5003;33942;49.272;14.452;2022-11-10T12:07:56;0;0;
48153;PMS5003;33942;49.272;14.452;2022-11-10T12:10:34;0;0;
48153;PMS5003;33942;49.272;14.452;2022-11-10T12:13:11;0;0;
48153;PMS5003;33942;49.272;14.452;2022-11-10T12:15:57;0;0;
48153;PMS5003;33942;49.272;14.452;2022-11-10T12:18:30;0;0;
48153;PMS5003;33942;49.272;14.452;2022-11-10T12:21:03;0;0;
48153;PMS5003;33942;49.272;14.452;2022-11-10T12:23:41;0;0;
48153;PMS5003;33942;49.272;14.452;2022-11-10T12:26:20;0;0;
48153;PMS5003;33942;49.272;14.452;2022-11-10T12:28:59;0;0;
48153;PMS5003;33942;49.272;14.452;2022-11-10T12:31:34;0;0;
48153;PMS5003;33942;49.272;14.452;2022-11-10T12:34:07;1;0;
48153;PMS5003;33942;49.272;14.452;2022-11-10T12:36:41;0;0;
48153;PMS5003;33942;49.272;14.452;2022-11-10T12:39:12;0;0;
48153;PMS5003;33942;49.272;14.452;2022-11-10T12:41:45;0;0;
48153;PMS5003;33942;49.272;14.452;2022-11-10T12:44:17;0;0;
48153;PMS5003;33942;49.272;14.452;2022-11-10T12:46:53;0;0;
48153;PMS5003;33942;49.272;14.452;2022-11-10T12:49:23;0;0;
48153;PMS5003;33942;49.272;14.452;2022-11-10T12:51:59;0;0;
48153;PMS5003;33942;49.272;14.452;2022-11-10T12:54:32;0;0;
48153;PMS5003;33942;49.272;14.452;2022-11-10T12:57:01;0;0;
48153;PMS5003;33942;49.272;14.452;2022-11-10T12:59:32;0;0;
48153;PMS5003;33942;49.272;14.452;2022-11-10T13:02:03;0;0;
48153;PMS5003;33942;49.272;14.452;2022-11-10T13:04:41;0;0;
48153;PMS5003;33942;49.272;14.452;2022-11-10T13:07:09;3;3;
48153;PMS5003;33942;49.272;14.452;2022-11-10T13:09:39;0;0;
48153;PMS5003;33942;49.272;14.452;2022-11-10T13:12:17;0;0;
48153;PMS5003;33942;49.272;14.452;2022-11-10T13:14:46;1;0;
48153;PMS5003;33942;49.272;14.452;2022-11-10T13:17:51;0;0;
48153;PMS5003;33942;49.272;14.452;2022-11-10T13:20:51;0;0;
48153;PMS5003;33942;49.272;14.452;2022-11-10T13:23:20;0;0;
48153;PMS5003;33942;49.272;14.452;2022-11-10T13:25:51;0;0;
48153;PMS5003;33942;49.272;14.452;2022-11-10T13:28:54;0;0;
48153;PMS5003;33942;49.272;14.452;2022-11-10T13:31:48;0;0;
48153;PMS5003;33942;49.272;14.452;2022-11-10T13:34:32;0;0;
48153;PMS5003;33942;49.272;14.452;2022-11-10T13:37:01;0;0;
48153;PMS5003;33942;49.272;14.452;2022-11-10T13:39:30;0;0;
48153;PMS5003;33942;49.272;14.452;2022-11-10T13:41:59;0;0;
48153;PMS5003;33942;49.272;14.452;2022-11-10T13:44:28;0;0;
48153;PMS5003;33942;49.272;14.452;2022-11-10T13:47:03;0;0;
48153;PMS5003;33942;49.272;14.452;2022-11-10T13:49:51;2;1;
48153;PMS5003;33942;49.272;14.452;2022-11-10T13:52:29;1;1;
48153;PMS5003;33942;49.272;14.452;2022-11-10T13:55:16;0;0;
48153;PMS5003;33942;49.272;14.452;2022-11-10T13:57:56;0;0;
48153;PMS5003;33942;49.272;14.452;2022-11-10T14:00:26;0;0;
48153;PMS5003;33942;49.272;14.452;2022-11-10T14:02:57;2;1;
48153;PMS5003;33942;49.272;14.452;2022-11-10T14:05:58;0;0;
48153;PMS5003;33942;49.272;14.452;2022-11-10T14:08:34;0;0;
48153;PMS5003;33942;49.272;14.452;2022-11-10T14:11:11;0;0;
48153;PMS5003;33942;49.272;14.452;2022-11-10T14:13:45;0;0;
48153;PMS5003;33942;49.272;14.452;2022-11-10T14:16:16;0;0;
48153;PMS5003;33942;49.272;14.452;2022-11-10T14:18:49;2;1;
48153;PMS5003;33942;49.272;14.452;2022-11-10T14:21:25;0;0;
48153;PMS5003;33942;49.272;14.452;2022-11-10T14:23:57;0;0;
48153;PMS5003;33942;49.272;14.452;2022-11-10T14:26:33;2;1;
48153;PMS5003;33942;49.272;14.452;2022-11-10T14:29:38;0;0;
48153;PMS5003;33942;49.272;14.452;2022-11-10T14:32:11;0;0;
48153;PMS5003;33942;49.272;14.452;2022-11-10T14:34:43;0;0;
48153;PMS5003;33942;49.272;14.452;2022-11-10T14:37:16;0;0;
48153;PMS5003;33942;49.272;14.452;2022-11-10T14:39:47;0;0;
48153;PMS5003;33942;49.272;14.452;2022-11-10T14:42:19;0;0;
48153;PMS5003;33942;49.272;14.452;2022-11-10T14:44:48;0;0;
48153;PMS5003;33942;49.272;14.452;2022-11-10T14:47:22;0;0;
48153;PMS5003;33942;49.272;14.452;2022-11-10T14:50:15;0;0;
48153;PMS5003;33942;49.272;14.452;2022-11-10T14:52:45;0;0;
48153;PMS5003;33942;49.272;14.452;2022-11-10T14:55:17;0;0;
48153;PMS5003;33942;49.272;14.452;2022-11-10T14:57:48;0;0;
48153;PMS5003;33942;49.272;14.452;2022-11-10T15:00:20;0;0;
48153;PMS5003;33942;49.272;14.452;2022-11-10T15:02:52;0;0;
48153;PMS5003;33942;49.272;14.452;2022-11-10T15:05:20;0;0;
48153;PMS5003;33942;49.272;14.452;2022-11-10T15:07:50;0;0;
48153;PMS5003;33942;49.272;14.452;2022-11-10T15:10:21;0;0;
48153;PMS5003;33942;49.272;14.452;2022-11-10T15:12:59;0;0;
48153;PMS5003;33942;49.272;14.452;2022-11-10T15:15:28;1;1;
48153;PMS5003;33942;49.272;14.452;2022-11-10T15:17:55;0;0;
48153;PMS5003;33942;49.272;14.452;2022-11-10T15:20:31;0;0;
48153;PMS5003;33942;49.272;14.452;2022-11-10T15:23:01;0;0;
48153;PMS5003;33942;49.272;14.452;2022-11-10T15:25:33;0;0;
48153;PMS5003;33942;49.272;14.452;2022-11-10T15:28:04;0;0;
48153;PMS5003;33942;49.272;14.452;2022-11-10T15:30:49;45;45;
48153;PMS5003;33942;49.272;14.452;2022-11-10T15:33:20;0;0;
